Aérodrome :
LOGIN :

S'inscrire | Disclaimer

   EN    FR    IT 

 










Légende :    VFR   VFR Marginal   IFR   IFR Intensif   IFR Très Intensif
Visi : 
Plafond : 
>= 8 km
>= 3000ft
5 à 8 km
1000 à 3000 ft
1500m à 5 km
500 à 1000 ft
800 à 1500m
200 à 500 ft
< 800m
< 200 ft
Symboles :   Orages  Brouillard  Fortes neiges  Fortes précipitations  Vent > 20 kt
SIGMETs :   Divers  Orages  Givrage  Turbulence  Onde Orograph.  Cendres Volcan.







- Altitude de l'aérodrome : 138 ft
- Code IATA : BIO


LEBB - Bilbao

DERNIER METAR :
  • 251500Z 04006KT 340V080 CAVOK 29/16 Q1016 NOSIG

METARs EXPIRÉS :
  • 251430Z 05005KT 300V090 CAVOK 29/16 Q1016 NOSIG
  • 251400Z 06004KT 320V110 CAVOK 29/16 Q1016 NOSIG
  • 251330Z 04008KT 010V080 CAVOK 29/16 Q1017 NOSIG
  • 251300Z 05009KT 350V080 CAVOK 29/16 Q1017 NOSIG
  • 251230Z 01007KT 300V060 CAVOK 29/17 Q1017 NOSIG

TAF TAF LEBB
Valide du 25 à 12h jusqu'au 26 à 12h UTC


251100Z 2512/2612 VRB04KT CAVOK TX30/2513Z TN15/2606Z
TEMPO 2512/2518 03010KT
Pas de NOTAMs connus pour ce terrain.



MET'MAP, la Météo Aéronautique d'un coup d'oeil ! - Copyright ORBIFLY Décembre 2007 - Disclaimer

ORBIFLY MET'MAP TEAM :

Programmation & Développement : Alexandra Zaïnal
Conception & Développement : Baudouin d'Aumeries
Co-Programmation & Développement : Marc-Olivier Méhu
Soutien technique & logistique : Manuel Goepfert

Contact : metmap@orbifly.com




SOURCES & CREDITS :

   NOAA